Date,TemperatureHighF,TemperatureAvgF,TemperatureLowF,DewpointHighF,DewpointAvgF,DewpointLowF,HumidityHigh,HumidityAvg,HumidityLow,PressureMaxIn,PressureMinIn,WindSpeedMaxMPH,WindSpeedAvgMPH,GustSpeedMaxMPH,PrecipitationSumIn
2013-2-5,70,69,69,54,54,53,58,58,57,29.90,29.90,1,0,2,0.00
2013-2-6,88,75,66,61,55,48,67,51,31,29.94,29.83,2,0,7,0.00
2013-2-7,90,75,66,60,57,55,71,56,31,29.93,29.83,2,0,5,0.02
2013-2-8,93,79,66,60,58,54,67,50,31,29.94,29.83,3,1,6,0.00
2013-2-9,93,75,65,60,57,53,70,55,27,29.95,29.85,5,0,13,0.25
2013-2-10,90,72,63,60,57,53,75,60,35,29.97,29.86,16,4,28,0.65
2013-2-11,81,69,60,61,55,49,79,63,37,29.96,29.84,17,8,30,0.00
2013-2-12,77,69,59,61,56,49,77,64,43,29.95,29.85,16,7,27,0.00
2013-2-13,82,70,63,62,61,56,83,74,46,29.91,29.80,12,6,18,0.00
2013-2-14,83,70,64,61,59,57,83,71,44,29.94,29.82,15,6,24,0.00
2013-2-15,86,73,63,60,51,32,79,51,17,29.92,29.79,15,8,23,0.00
2013-2-16,83,71,65,60,53,37,79,58,22,29.96,29.82,16,10,24,0.00
2013-2-17,78,69,64,59,56,54,77,65,48,29.97,29.84,21,10,31,0.00
2013-2-18,78,70,64,61,58,53,80,67,50,29.93,29.80,19,9,34,0.00
2013-2-19,79,69,62,61,58,52,83,70,49,29.92,29.81,18,10,27,0.00
2013-2-20,80,70,63,62,58,52,80,66,44,29.89,29.76,17,9,27,0.00
2013-2-21,79,70,64,63,60,56,82,71,50,29.89,29.79,17,10,30,0.00
2013-2-22,83,71,62,64,59,54,83,68,51,29.93,29.81,17,9,26,0.00
2013-2-23,73,69,68,63,61,60,79,75,69,29.89,29.80,14,8,23,0.00
2013-2-24,82,73,67,64,62,59,82,68,51,30.60,29.78,17,9,27,0.00
2013-2-25,83,71,65,66,63,58,91,76,52,29.85,29.75,12,5,15,0.25
2013-2-26,84,75,61,65,64,58,91,69,52,29.87,29.78,18,8,28,0.01
2013-2-27,80,71,65,64,62,59,85,73,54,29.90,29.80,17,9,27,0.00
2013-2-28,81,71,64,64,60,57,82,68,50,29.89,29.79,18,9,29,0.00
2013-3-1,76,68,65,64,62,60,85,81,64,29.89,29.78,14,8,21,0.01
2013-3-2,75,68,64,60,59,55,84,73,55,29.94,29.82,19,9,32,0.01
2013-3-3,70,63,59,58,55,52,83,75,59,30.01,29.91,26,14,36,0.07
2013-3-4,74,66,60,60,58,54,84,76,61,29.99,29.86,21,11,33,0.02
2013-3-5,82,71,65,64,62,60,87,75,54,29.96,29.84,17,9,27,0.00
2013-3-6,79,71,67,65,63,61,86,78,62,29.98,29.87,16,8,28,0.00
2013-3-7,78,71,67,64,63,62,87,75,62,29.97,29.85,21,11,34,0.02
2013-3-8,78,71,67,65,63,61,86,76,62,29.94,29.83,24,11,34,0.06
2013-3-9,81,71,66,64,62,60,85,74,54,29.95,29.83,17,10,26,0.00
2013-3-10,82,71,66,65,62,60,86,73,53,29.90,29.79,19,9,26,0.00
2013-3-11,83,73,65,65,62,59,83,69,49,29.90,29.78,17,8,27,0.00
2013-3-12,82,72,66,64,62,60,83,72,53,29.93,29.82,18,8,29,0.00
2013-3-13,77,70,65,63,60,57,85,73,59,29.95,29.84,18,10,30,0.01
2013-3-14,74,67,64,60,58,54,83,71,57,29.94,29.85,17,10,31,0.02
2013-3-15,74,67,63,61,56,51,81,70,58,29.94,29.83,16,10,26,0.00
2013-3-16,80,71,64,60,56,49,77,61,47,29.92,29.80,18,10,30,0.00
2013-3-17,87,72,63,64,60,55,86,67,39,29.94,29.83,14,7,20,0.00
2013-3-18,86,74,64,64,62,57,83,67,39,29.94,29.84,14,6,23,0.00
2013-3-19,86,74,64,66,62,57,83,67,44,29.93,29.81,15,6,24,0.00
2013-3-20,89,75,62,66,60,54,84,64,33,29.91,29.79,12,3,17,0.00
2013-3-21,91,73,65,68,59,25,92,69,10,29.91,29.78,14,3,21,0.34
2013-3-22,89,75,61,68,57,34,89,60,18,29.91,29.82,13,4,18,0.00
2013-3-29,74,68,65,59,55,51,68,64,54,29.99,29.91,19,9,27,0.12
2013-3-30,83,71,64,63,59,51,87,67,45,29.98,29.87,18,10,28,0.00
2013-3-31,82,72,67,66,64,61,87,75,56,29.94,27.76,17,9,28,0.00
2013-4-1,82,73,67,68,65,62,88,76,58,29.97,29.84,21,8,32,0.14
2013-4-2,80,72,67,66,64,62,89,75,55,29.97,29.88,17,8,26,0.00
2013-4-3,85,72,68,65,63,60,85,72,50,29.96,29.85,17,7,25,0.00
2013-4-4,87,74,66,69,63,59,94,71,43,29.96,29.87,13,5,21,0.96
2013-4-5,86,73,68,66,64,60,83,72,49,29.98,29.87,15,8,24,0.00
2013-4-6,83,74,66,63,61,58,83,66,47,29.99,29.88,17,8,26,0.00
2013-5-3,85,74,68,68,66,64,94,77,53,29.97,29.84,11,4,17,0.00
2013-5-4,78,71,68,65,60,55,82,67,49,29.97,29.87,16,8,26,0.05
2013-5-5,86,72,65,66,60,54,93,67,43,30.02,29.90,14,6,24,0.19
2013-5-6,87,74,65,68,61,52,93,67,40,30.02,29.91,15,4,21,0.01
2013-5-7,83,72,64,59,54,49,70,54,37,30.02,29.91,13,7,26,0.00
2013-5-8,84,72,60,63,53,32,80,55,17,30.02,29.92,14,7,23,0.00
2013-5-9,86,75,66,68,64,57,85,70,43,30.03,29.92,13,4,24,0.00
2013-5-10,72,69,68,65,63,62,87,83,77,30.01,29.91,12,6,18,0.00
2013-5-21,84,72,65,69,65,63,96,82,51,29.93,29.83,11,4,20,0.18
2013-5-22,83,70,64,68,66,63,96,86,58,29.93,29.85,6,2,8,0.15
2013-5-23,80,71,65,68,65,62,97,83,60,29.94,29.85,11,4,14,0.02
2013-5-24,86,70,65,69,66,63,100,87,47,29.96,29.88,8,2,11,2.13
2013-5-25,80,72,67,68,65,63,88,79,60,29.97,29.89,11,6,19,0.01
2013-5-26,85,74,66,70,65,62,95,76,51,29.97,29.88,13,4,17,0.00
2013-5-27,85,72,68,68,65,62,94,81,47,29.96,29.86,14,4,21,0.00
2013-5-28,87,72,65,69,65,63,97,79,46,29.96,29.85,15,5,23,0.86
2013-7-8,82,72,67,66,63,61,85,75,57,29.97,29.87,9,6,16,0.00
2013-7-9,82,74,67,65,64,62,85,73,57,29.97,29.89,11,6,21,0.00
2013-7-10,86,74,68,69,65,64,94,76,48,29.95,29.85,9,5,14,0.06
2013-7-11,75,69,64,66,64,62,96,85,71,29.97,29.88,8,4,14,0.01
2013-7-12,82,71,67,68,65,62,96,82,60,29.96,29.89,9,3,14,0.08
2013-7-13,84,73,62,70,64,60,95,75,50,29.96,29.85,13,4,20,0.00
2013-7-14,84,72,65,66,63,59,83,75,54,29.91,29.83,13,7,21,0.00
2013-7-15,84,74,66,66,63,59,83,70,53,29.91,29.81,15,8,25,0.00
2013-7-16,83,74,67,66,64,61,83,71,55,29.93,29.84,15,8,23,0.00
2013-7-19,79,70,66,66,65,63,96,82,65,29.96,29.88,11,5,18,0.05
2013-7-20,83,74,68,70,64,63,85,74,54,29.93,29.83,11,6,17,0.00
2013-7-21,84,72,66,67,64,62,96,77,48,29.96,29.84,13,4,16,0.58
2013-7-22,81,71,66,66,64,61,97,78,55,29.95,29.88,10,6,15,0.06
2013-7-23,82,72,68,66,65,62,87,77,58,29.94,29.85,13,8,21,0.00
2013-7-24,80,72,66,67,65,63,89,79,64,29.89,29.81,12,6,20,0.00
2013-7-25,83,72,68,71,66,64,97,84,62,29.96,29.84,15,6,25,0.07
2013-7-26,87,74,69,66,64,58,86,72,39,29.98,29.90,17,8,27,0.00
2013-8-9,84,71,60,66,63,58,95,78,49,29.93,29.86,11,3,20,0.01
2013-8-10,81,72,67,64,63,61,86,74,56,29.94,29.87,13,6,19,0.00
2013-8-11,84,72,62,68,64,59,100,80,47,29.95,29.84,12,3,20,0.06
2013-8-12,85,71,66,68,66,63,100,85,48,29.92,29.84,8,3,12,0.08
2013-8-13,84,72,64,69,66,63,97,83,54,29.91,29.81,9,3,16,0.02
2013-8-14,84,74,64,71,67,62,95,80,57,29.89,29.80,8,3,14,0.01
2013-8-15,88,72,68,72,67,64,100,84,46,29.92,29.82,8,4,14,0.00
2013-8-16,84,73,66,70,65,63,97,79,53,29.96,29.83,11,4,19,0.44
2013-8-17,82,70,65,69,65,62,96,84,56,29.95,29.85,10,3,17,0.14
2013-8-18,84,72,65,70,65,61,95,80,53,29.97,29.86,12,5,21,0.01
2013-8-19,86,74,67,67,64,60,86,73,49,29.92,29.83,14,6,24,0.06
2013-8-20,86,73,64,67,63,60,90,73,48,29.92,29.82,14,6,24,0.00
2013-8-21,78,71,68,67,63,61,94,77,65,29.93,29.86,13,6,20,0.02
2013-9-12,86,72,65,69,66,62,100,82,44,29.92,29.82,9,2,15,0.01
2013-9-13,86,71,65,70,65,62,97,84,48,29.87,29.76,9,2,17,1.19
2013-9-14,86,72,66,70,66,62,97,84,54,29.90,29.79,8,3,14,0.44
2013-9-15,87,73,66,71,66,63,97,82,50,29.92,29.81,10,3,14,1.75
2013-9-16,84,72,64,70,66,62,96,84,60,29.92,29.79,9,3,13,0.53
2013-9-17,85,71,63,70,65,60,97,82,49,29.91,29.81,7,3,10,0.01
2013-9-18,84,68,66,70,66,65,100,94,58,29.96,29.82,8,1,11,1.61
2013-9-19,83,72,65,69,67,63,100,84,60,29.96,29.85,9,3,14,0.01
2013-12-9,82,73,63,65,62,58,85,70,49,29.96,29.84,12,5,17,0.00
2013-12-10,86,72,62,66,60,54,85,69,41,29.97,29.87,9,5,15,0.00
2013-12-11,81,72,65,66,64,60,85,75,58,29.96,29.84,12,7,20,0.00
2013-12-12,80,71,67,67,65,63,89,82,63,29.96,29.85,12,8,20,0.12
2013-12-13,79,71,66,65,62,60,88,75,53,29.91,29.79,14,8,21,0.00
2013-12-14,76,70,65,66,63,59,86,80,68,29.90,29.81,14,6,19,0.00
2013-12-15,78,69,64,67,63,60,88,83,66,29.92,29.82,14,6,24,0.21
2013-12-16,68,66,65,63,62,58,88,85,75,29.94,29.84,12,5,19,0.01